Time;durP1;ratioP1;P1;durP2;ratioP2;P2;SDS_P1;SDS_P2;PMS_P1;PMS_P2;Temp;Humidity;BMP_temperature;BMP_pressure;BME280_temperature;BME280_humidity;BME280_pressure;Samples;Min_cycle;Max_cycle;Signal;HPM_P1;HPM_P2
2020/12/24 00:00:37;;;;;;;45.70;28.43;;;;;;;7.46;100.00;101766.63;5033527;28;20170;-74
2020/12/24 00:03:03;;;;;;;40.87;27.10;;;;;;;7.44;100.00;101764.06;5031460;28;20249;-76
2020/12/24 00:05:28;;;;;;;52.50;30.90;;;;;;;7.44;100.00;101764.06;5032495;28;20261;-75
2020/12/24 00:07:54;;;;;;;51.40;30.47;;;;;;;7.42;100.00;101754.59;5030058;28;20170;-76
2020/12/24 00:10:19;;;;;;;50.17;32.37;;;;;;;7.46;100.00;101764.84;5033292;28;20181;-75
2020/12/24 00:12:45;;;;;;;55.93;33.37;;;;;;;7.45;100.00;101752.69;5024948;28;20178;-74
2020/12/24 00:15:10;;;;;;;52.73;31.93;;;;;;;7.42;100.00;101757.19;5032322;28;20201;-75
2020/12/24 00:17:36;;;;;;;52.43;31.57;;;;;;;7.40;100.00;101764.22;5029042;28;20169;-74
2020/12/24 00:20:04;;;;;;;50.00;30.57;;;;;;;7.50;100.00;101774.31;5032406;28;20552;-75
2020/12/24 00:22:30;;;;;;;49.03;30.70;;;;;;;7.42;100.00;101765.03;5029421;28;20495;-74
2020/12/24 00:24:55;;;;;;;52.23;32.47;;;;;;;7.47;100.00;101771.78;5031388;28;20508;-76
2020/12/24 00:27:21;;;;;;;53.73;31.67;;;;;;;7.37;100.00;101770.44;5032981;28;20216;-74
2020/12/24 00:29:46;;;;;;;52.27;31.93;;;;;;;7.58;100.00;101781.84;5026955;28;20173;-74
2020/12/24 00:32:12;;;;;;;48.50;31.80;;;;;;;7.48;100.00;101783.97;5030574;28;20166;-76
2020/12/24 00:34:37;;;;;;;46.17;28.67;;;;;;;7.57;100.00;101780.16;5025825;28;20176;-76
2020/12/24 00:37:03;;;;;;;52.00;32.53;;;;;;;7.59;100.00;101775.72;5029395;28;20318;-75
2020/12/24 00:39:28;;;;;;;51.37;32.90;;;;;;;7.52;100.00;101766.41;5032338;28;20181;-74
2020/12/24 00:41:54;;;;;;;47.40;29.63;;;;;;;7.54;100.00;101748.88;5030178;28;20173;-75
2020/12/24 00:44:20;;;;;;;57.53;32.93;;;;;;;7.35;100.00;101743.50;5031877;28;20632;-74
2020/12/24 00:46:46;;;;;;;56.23;32.97;;;;;;;7.34;100.00;101744.41;5023427;28;20221;-75
2020/12/24 00:49:11;;;;;;;65.40;34.60;;;;;;;7.39;100.00;101745.06;5031250;28;20450;-75
2020/12/24 00:51:37;;;;;;;54.03;30.70;;;;;;;7.37;100.00;101746.06;5029632;28;20660;-76
2020/12/24 00:54:03;;;;;;;56.57;33.87;;;;;;;7.55;100.00;101752.34;5030380;28;20181;-76
2020/12/24 00:56:29;;;;;;;49.40;31.00;;;;;;;7.50;100.00;101758.63;5024447;28;20619;-75
2020/12/24 00:58:54;;;;;;;55.33;33.10;;;;;;;7.42;100.00;101758.06;5031471;28;21058;-75
2020/12/24 01:01:20;;;;;;;60.47;34.83;;;;;;;7.54;100.00;101748.88;5031771;28;20741;-76
2020/12/24 01:03:45;;;;;;;54.47;33.97;;;;;;;7.59;100.00;101753.94;5021214;28;20181;-76
2020/12/24 01:06:11;;;;;;;48.53;31.77;;;;;;;7.59;100.00;101748.72;5032524;28;20173;-76
2020/12/24 01:08:36;;;;;;;55.03;31.10;;;;;;;7.51;100.00;101747.25;5027996;28;20173;-76
2020/12/24 01:11:01;;;;;;;50.60;29.60;;;;;;;7.46;100.00;101746.56;5032323;28;20539;-77
2020/12/24 01:13:27;;;;;;;53.93;32.10;;;;;;;7.36;100.00;101733.91;5021627;28;20201;-74
2020/12/24 01:15:52;;;;;;;53.20;31.60;;;;;;;7.43;100.00;101741.44;5030207;28;20680;-74
2020/12/24 01:18:18;;;;;;;57.13;36.60;;;;;;;7.45;100.00;101734.41;5027194;28;20536;-79
2020/12/24 01:20:45;;;;;;;57.83;32.70;;;;;;;7.39;100.00;101733.78;5030451;28;20177;-77
2020/12/24 01:23:10;;;;;;;69.40;39.27;;;;;;;7.33;100.00;101727.03;5030463;28;20247;-78
2020/12/24 01:25:36;;;;;;;57.80;32.90;;;;;;;7.28;100.00;101738.56;5031621;28;20962;-78
2020/12/24 01:28:01;;;;;;;62.23;37.57;;;;;;;7.28;100.00;101733.31;5006254;28;20175;-77
2020/12/24 01:30:27;;;;;;;55.13;29.13;;;;;;;7.26;100.00;101728.16;5025753;28;20551;-76
2020/12/24 01:32:53;;;;;;;61.53;36.33;;;;;;;7.19;100.00;101722.31;5027389;28;20644;-76
2020/12/24 01:35:18;;;;;;;69.03;35.80;;;;;;;7.28;100.00;101713.28;5031157;28;20189;-77
2020/12/24 01:37:44;;;;;;;54.67;33.57;;;;;;;7.16;100.00;101705.88;5032344;28;20423;-77
2020/12/24 01:40:09;;;;;;;59.47;32.80;;;;;;;7.24;100.00;101704.66;5022800;28;20178;-74
2020/12/24 01:42:35;;;;;;;58.10;32.60;;;;;;;7.28;100.00;101712.41;5030911;28;20170;-76
2020/12/24 01:45:00;;;;;;;59.93;33.03;;;;;;;7.26;100.00;101704.63;5030610;28;20196;-75
2020/12/24 01:47:26;;;;;;;57.07;29.87;;;;;;;7.22;100.00;101706.50;5026995;28;20252;-75
2020/12/24 01:49:51;;;;;;;54.90;29.80;;;;;;;7.17;100.00;101694.50;5017820;28;20197;-76
2020/12/24 01:52:31;;;;;;;50.20;31.17;;;;;;;7.11;100.00;101698.22;5021331;28;20216;-76
2020/12/24 01:54:57;;;;;;;49.83;28.57;;;;;;;7.09;100.00;101704.38;5024136;28;20710;-76
2020/12/24 01:57:22;;;;;;;54.47;30.50;;;;;;;6.95;100.00;101708.38;5026235;28;20989;-76
2020/12/24 01:59:48;;;;;;;50.53;29.50;;;;;;;6.98;100.00;101701.34;5028729;28;20424;-75
2020/12/24 02:02:14;;;;;;;47.17;27.83;;;;;;;7.03;100.00;101700.25;5026364;28;20186;-76
2020/12/24 02:04:39;;;;;;;47.10;27.87;;;;;;;7.04;100.00;101694.13;5028352;28;20970;-77
2020/12/24 02:07:05;;;;;;;48.53;26.40;;;;;;;7.03;100.00;101697.66;5031370;28;20182;-77
2020/12/24 02:09:31;;;;;;;41.20;27.43;;;;;;;7.03;100.00;101695.03;5028037;28;20651;-77
2020/12/24 02:11:58;;;;;;;42.83;28.17;;;;;;;7.05;100.00;101697.59;5031345;28;20308;-78
2020/12/24 02:14:24;;;;;;;46.10;26.07;;;;;;;7.06;100.00;101686.22;5031105;28;20470;-76
2020/12/24 02:16:49;;;;;;;44.17;28.47;;;;;;;7.10;100.00;101688.66;5030443;28;20812;-75
2020/12/24 02:19:15;;;;;;;45.20;30.00;;;;;;;7.13;100.00;101685.09;5026946;28;20228;-77
2020/12/24 02:21:40;;;;;;;49.23;29.23;;;;;;;7.12;100.00;101684.25;5030521;28;20575;-77
2020/12/24 02:24:05;;;;;;;51.60;27.67;;;;;;;7.17;100.00;101686.66;5027945;28;20181;-74
2020/12/24 02:26:31;;;;;;;46.90;29.23;;;;;;;7.08;100.00;101674.81;5029539;28;20208;-76
2020/12/24 02:28:57;;;;;;;47.27;28.57;;;;;;;7.09;100.00;101673.03;5027981;28;20622;-78
2020/12/24 02:31:22;;;;;;;50.07;29.20;;;;;;;7.06;100.00;101673.16;5026745;28;20170;-77
2020/12/24 02:33:48;;;;;;;54.80;28.40;;;;;;;7.06;100.00;101678.38;5030748;28;20636;-77
2020/12/24 02:36:14;;;;;;;47.70;29.00;;;;;;;7.19;100.00;101666.56;5028495;28;20194;-77
2020/12/24 02:38:39;;;;;;;50.03;27.50;;;;;;;7.24;100.00;101669.84;5031370;28;20552;-77
2020/12/24 02:41:04;;;;;;;49.37;30.20;;;;;;;7.25;100.00;101671.53;5024554;28;20174;-78
2020/12/24 02:43:30;;;;;;;42.53;29.03;;;;;;;7.27;100.00;101671.50;5022588;28;20169;-76
2020/12/24 02:45:56;;;;;;;44.77;27.90;;;;;;;7.26;100.00;101681.13;5025982;28;20213;-78
2020/12/24 02:48:21;;;;;;;55.53;31.47;;;;;;;7.12;100.00;101665.94;5028684;28;20652;-76
2020/12/24 02:50:47;;;;;;;53.43;31.60;;;;;;;7.17;100.00;101657.91;5031021;28;20415;-78
2020/12/24 02:53:12;;;;;;;51.07;31.00;;;;;;;7.18;100.00;101672.72;5010746;28;20637;-76
2020/12/24 02:55:38;;;;;;;52.90;31.73;;;;;;;7.28;100.00;101668.00;5023585;28;20193;-76
2020/12/24 02:58:04;;;;;;;59.57;34.03;;;;;;;7.08;100.00;101666.97;5030456;28;20174;-77
2020/12/24 03:00:30;;;;;;;57.70;35.80;;;;;;;7.17;100.00;101671.00;5025279;28;20201;-76
2020/12/24 03:02:55;;;;;;;54.57;33.97;;;;;;;7.22;100.00;101669.91;5028168;28;20452;-76
2020/12/24 03:05:21;;;;;;;57.87;33.43;;;;;;;7.18;100.00;101668.34;5022607;28;20170;-77
2020/12/24 03:07:51;;;;;;;61.80;34.00;;;;;;;7.21;100.00;101672.59;5022898;28;20256;-77
2020/12/24 03:10:17;;;;;;;55.80;34.07;;;;;;;7.09;100.00;101667.81;5030774;28;20182;-77
2020/12/24 03:12:43;;;;;;;52.57;32.77;;;;;;;7.17;100.00;101676.22;5027048;28;20794;-77
2020/12/24 03:15:08;;;;;;;50.90;32.43;;;;;;;7.06;100.00;101667.94;5030465;28;20829;-77
2020/12/24 03:17:34;;;;;;;52.27;30.50;;;;;;;7.09;100.00;101670.44;5027201;28;20472;-77
2020/12/24 03:19:59;;;;;;;52.97;33.10;;;;;;;6.91;100.00;101672.81;5030512;28;20170;-76
2020/12/24 03:22:25;;;;;;;51.53;31.93;;;;;;;6.98;100.00;101683.03;5031383;28;20186;-76
2020/12/24 03:24:50;;;;;;;58.10;36.77;;;;;;;7.01;100.00;101683.78;5031702;28;20659;-75
2020/12/24 03:27:15;;;;;;;55.23;33.43;;;;;;;7.05;100.00;101687.13;5031334;28;20667;-76
2020/12/24 03:29:41;;;;;;;50.03;28.90;;;;;;;7.08;100.00;101681.78;5031369;28;20691;-76
2020/12/24 03:32:06;;;;;;;50.10;30.83;;;;;;;7.01;100.00;101682.91;5031459;28;20185;-78
2020/12/24 03:34:32;;;;;;;55.77;32.43;;;;;;;6.84;100.00;101684.38;5031415;28;20166;-77
2020/12/24 03:36:57;;;;;;;56.93;30.00;;;;;;;6.75;100.00;101679.50;5031293;28;20754;-77
2020/12/24 03:39:23;;;;;;;43.23;30.13;;;;;;;6.89;100.00;101676.41;5013730;28;20169;-77
2020/12/24 03:41:48;;;;;;;44.67;29.87;;;;;;;6.98;100.00;101680.44;5034780;28;20249;-77
2020/12/24 03:44:14;;;;;;;47.90;30.50;;;;;;;6.99;100.00;101682.13;5034928;28;20197;-75
2020/12/24 03:46:39;;;;;;;52.83;29.93;;;;;;;6.87;100.00;101676.44;5035019;28;20253;-76
2020/12/24 03:49:06;;;;;;;52.23;30.30;;;;;;;6.73;100.00;101680.47;5034988;28;20264;-78
2020/12/24 03:51:31;;;;;;;51.20;30.20;;;;;;;6.68;100.00;101686.69;5035145;28;20181;-74
2020/12/24 03:53:57;;;;;;;52.87;30.77;;;;;;;6.70;100.00;101686.63;5034938;28;20827;-77
2020/12/24 03:56:22;;;;;;;49.90;28.33;;;;;;;6.76;100.00;101685.56;5034783;28;20197;-75
2020/12/24 03:58:47;;;;;;;45.20;29.10;;;;;;;6.76;100.00;101683.81;5034668;28;20173;-75
2020/12/24 04:01:13;;;;;;;50.73;30.30;;;;;;;6.79;100.00;101691.53;5034635;28;20631;-75
2020/12/24 04:03:38;;;;;;;50.87;28.90;;;;;;;6.75;100.00;101694.31;5034546;28;20170;-78
2020/12/24 04:06:05;;;;;;;49.27;26.77;;;;;;;6.90;100.00;101689.41;5034667;28;20173;-78
2020/12/24 04:08:31;;;;;;;48.13;27.57;;;;;;;6.84;100.00;101691.38;5034405;28;20173;-76
2020/12/24 04:10:56;;;;;;;41.80;25.87;;;;;;;6.93;100.00;101688.44;5034545;28;20427;-76
2020/12/24 04:13:22;;;;;;;44.00;25.43;;;;;;;7.04;100.00;101693.28;5034773;28;20803;-75
2020/12/24 04:15:47;;;;;;;46.73;27.13;;;;;;;6.99;100.00;101688.22;5034415;28;20193;-77
2020/12/24 04:18:13;;;;;;;43.10;27.50;;;;;;;6.97;100.00;101684.81;5034652;28;20170;-76
2020/12/24 04:20:38;;;;;;;45.00;25.70;;;;;;;6.93;100.00;101683.19;5034179;28;20177;-74
2020/12/24 04:23:05;;;;;;;42.67;27.27;;;;;;;6.88;100.00;101690.38;5034292;28;20173;-75
2020/12/24 04:25:30;;;;;;;44.00;29.43;;;;;;;6.88;100.00;101677.31;5034373;28;20675;-76
2020/12/24 04:27:56;;;;;;;48.63;28.77;;;;;;;6.86;100.00;101681.72;5034384;28;21746;-77
2020/12/24 04:30:21;;;;;;;48.97;28.00;;;;;;;6.89;100.00;101674.63;5034259;28;20608;-76
2020/12/24 04:32:47;;;;;;;43.20;27.87;;;;;;;6.95;100.00;101682.25;5034250;28;20177;-77
2020/12/24 04:35:12;;;;;;;49.10;29.27;;;;;;;6.98;100.00;101685.66;5034011;28;20675;-76
2020/12/24 04:37:38;;;;;;;52.20;29.43;;;;;;;6.99;100.00;101690.81;5034086;28;20189;-75
2020/12/24 04:40:03;;;;;;;53.60;27.97;;;;;;;6.97;100.00;101689.19;5033796;28;20269;-78
2020/12/24 04:42:31;;;;;;;43.87;27.07;;;;;;;6.89;100.00;101687.69;5034152;28;20199;-77
2020/12/24 04:44:58;;;;;;;50.80;27.37;;;;;;;6.88;100.00;101700.81;5034032;28;20243;-77
2020/12/24 04:47:24;;;;;;;44.17;26.97;;;;;;;6.95;100.00;101694.44;5033487;28;20522;-75
2020/12/24 04:49:50;;;;;;;44.03;24.73;;;;;;;6.86;100.00;101685.19;5033726;28;20832;-76
2020/12/24 04:52:16;;;;;;;42.90;25.77;;;;;;;6.81;100.00;101681.06;5033217;28;20180;-77
2020/12/24 04:54:41;;;;;;;52.83;27.70;;;;;;;6.77;100.00;101693.34;5033834;28;20408;-76
2020/12/24 04:57:09;;;;;;;48.17;27.33;;;;;;;6.93;100.00;101688.44;5033702;28;20213;-76
2020/12/24 04:59:38;;;;;;;41.67;27.57;;;;;;;6.91;100.00;101690.25;5033636;28;20197;-77
2020/12/24 05:02:04;;;;;;;40.63;23.57;;;;;;;6.87;100.00;101681.66;5033612;28;20416;-77
2020/12/24 05:04:31;;;;;;;46.97;26.80;;;;;;;6.96;100.00;101693.56;5033582;28;20452;-77
2020/12/24 05:07:01;;;;;;;50.00;26.70;;;;;;;6.92;100.00;101690.19;5033793;28;20412;-77
2020/12/24 05:09:27;;;;;;;51.60;25.23;;;;;;;6.98;100.00;101691.72;5033469;28;20416;-77
2020/12/24 05:11:52;;;;;;;44.53;26.50;;;;;;;6.93;100.00;101685.81;5033607;28;20424;-76
2020/12/24 05:14:19;;;;;;;46.93;27.70;;;;;;;6.90;100.00;101691.16;5033786;28;20178;-77
2020/12/24 05:16:58;;;;;;;46.10;26.43;;;;;;;6.93;100.00;101691.88;5033502;28;20288;-77
2020/12/24 05:19:25;;;;;;;41.40;26.10;;;;;;;6.85;100.00;101699.16;5015579;28;20420;-77
2020/12/24 05:21:50;;;;;;;48.37;26.87;;;;;;;6.92;100.00;101700.63;5033149;28;20413;-75
2020/12/24 05:24:27;;;;;;;41.93;25.33;;;;;;;6.88;100.00;101701.66;5033179;28;20455;-76
2020/12/24 05:27:07;;;;;;;41.30;26.37;;;;;;;6.90;100.00;101692.00;5033415;28;20290;-77
2020/12/24 05:29:37;;;;;;;48.93;25.27;;;;;;;7.01;100.00;101696.84;5032847;28;20420;-77
2020/12/24 05:32:04;;;;;;;45.43;27.97;;;;;;;6.99;100.00;101703.03;5033228;28;20421;-76
2020/12/24 05:34:29;;;;;;;46.67;26.53;;;;;;;6.86;100.00;101700.84;5033183;28;20444;-77
2020/12/24 05:37:12;;;;;;;45.20;28.00;;;;;;;7.00;100.00;101699.50;5032880;28;20539;-76
2020/12/24 05:39:42;;;;;;;48.03;27.67;;;;;;;7.02;100.00;101703.75;5032977;28;20172;-77
2020/12/24 05:42:08;;;;;;;45.70;27.57;;;;;;;6.93;100.00;101694.50;5032895;28;20775;-77
2020/12/24 05:44:34;;;;;;;55.07;30.23;;;;;;;6.98;100.00;101701.34;5033171;28;20918;-78
2020/12/24 05:46:59;;;;;;;47.27;29.00;;;;;;;7.06;100.00;101699.28;5032558;28;20849;-77
2020/12/24 05:49:27;;;;;;;52.30;30.00;;;;;;;6.89;100.00;101702.53;5032709;28;20919;-76
2020/12/24 05:51:58;;;;;;;46.17;26.57;;;;;;;6.92;100.00;101700.63;5032610;28;20312;-77
2020/12/24 05:54:24;;;;;;;48.70;29.20;;;;;;;7.09;100.00;101686.94;5032813;28;20906;-76
2020/12/24 05:56:52;;;;;;;40.43;24.77;;;;;;;7.10;100.00;101683.44;5032474;28;20451;-76
2020/12/24 05:59:22;;;;;;;47.90;27.30;;;;;;;7.02;100.00;101684.63;5032753;28;20492;-78
2020/12/24 06:02:02;;;;;;;47.10;29.47;;;;;;;7.00;100.00;101689.06;5032412;28;20400;-78
2020/12/24 06:04:45;;;;;;;46.63;30.70;;;;;;;7.07;100.00;101687.94;5032779;28;20412;-78
2020/12/24 06:07:13;;;;;;;46.43;27.07;;;;;;;7.18;100.00;101689.25;5032396;28;20476;-77
2020/12/24 06:09:41;;;;;;;49.63;29.00;;;;;;;7.17;100.00;101692.75;5032204;28;20786;-76
2020/12/24 06:12:22;;;;;;;49.73;30.27;;;;;;;7.34;100.00;101694.75;5032508;28;20486;-77
2020/12/24 06:14:50;;;;;;;50.00;29.90;;;;;;;7.39;100.00;101691.94;5014568;28;20953;-77
2020/12/24 06:17:18;;;;;;;52.50;29.83;;;;;;;7.47;100.00;101684.66;5032455;28;20423;-78
2020/12/24 06:19:44;;;;;;;56.77;28.90;;;;;;;7.49;100.00;101688.09;5032634;28;20897;-77
2020/12/24 06:22:10;;;;;;;66.57;32.57;;;;;;;7.62;100.00;101689.28;5032042;28;20415;-78
2020/12/24 06:24:41;;;;;;;45.47;28.23;;;;;;;7.71;100.00;101680.25;5032325;28;20409;-74
2020/12/24 06:27:13;;;;;;;47.90;28.70;;;;;;;7.63;100.00;101682.28;5031987;28;20429;-76
2020/12/24 06:29:44;;;;;;;48.27;28.03;;;;;;;7.64;100.00;101689.25;5032019;28;20420;-76
2020/12/24 06:32:12;;;;;;;52.17;30.00;;;;;;;7.76;100.00;101676.53;5032215;28;21006;-78
2020/12/24 06:34:41;;;;;;;49.80;30.57;;;;;;;7.87;100.00;101683.97;5031720;28;20413;-77
2020/12/24 06:37:16;;;;;;;52.60;30.60;;;;;;;7.97;100.00;101674.81;5031945;28;20448;-76
2020/12/24 06:39:47;;;;;;;55.20;30.23;;;;;;;8.07;100.00;101678.75;5031992;28;20952;-78
2020/12/24 06:42:42;;;;;;;51.30;31.20;;;;;;;8.05;100.00;101666.66;5031666;28;20405;-78
2020/12/24 06:45:32;;;;;;;55.03;32.37;;;;;;;8.08;100.00;101674.34;5031526;28;20432;-77
2020/12/24 06:48:13;;;;;;;57.03;33.67;;;;;;;8.00;100.00;101665.97;5032034;28;20421;-77
2020/12/24 06:50:40;;;;;;;64.23;32.00;;;;;;;8.02;100.00;101672.03;5031837;28;20419;-76
2020/12/24 06:53:23;;;;;;;54.20;32.07;;;;;;;8.01;100.00;101671.16;5031687;28;20403;-77
2020/12/24 06:56:17;;;;;;;51.53;31.93;;;;;;;7.99;100.00;101669.50;5031493;28;20866;-77
2020/12/24 06:59:03;;;;;;;59.77;32.80;;;;;;;8.03;100.00;101671.09;5031657;28;20409;-76
2020/12/24 07:01:31;;;;;;;57.70;29.80;;;;;;;8.14;100.00;101673.25;5031862;28;20413;-76
2020/12/24 07:03:59;;;;;;;53.67;32.80;;;;;;;8.18;100.00;101669.63;5031610;28;20408;-77
2020/12/24 07:06:47;;;;;;;58.17;34.63;;;;;;;8.21;100.00;101664.25;5031550;28;20828;-77
2020/12/24 07:09:18;;;;;;;56.93;32.10;;;;;;;8.32;100.00;101669.88;5031781;28;20404;-77
2020/12/24 07:11:47;;;;;;;58.30;32.30;;;;;;;8.13;100.00;101666.31;5031232;28;20495;-77
2020/12/24 07:14:30;;;;;;;52.80;33.33;;;;;;;8.09;100.00;101665.63;5031642;28;20401;-77
2020/12/24 07:16:57;;;;;;;58.80;34.17;;;;;;;8.32;100.00;101662.88;5035105;28;20607;-77
2020/12/24 07:19:23;;;;;;;56.43;31.37;;;;;;;8.30;100.00;101664.69;5035596;28;20918;-76
2020/12/24 07:21:51;;;;;;;52.60;32.30;;;;;;;8.28;100.00;101655.22;5035470;28;20724;-76
2020/12/24 07:24:27;;;;;;;53.50;33.37;;;;;;;8.23;100.00;101657.16;5035050;28;20433;-76
2020/12/24 07:27:01;;;;;;;56.43;35.80;;;;;;;8.24;100.00;101658.88;5035289;28;20537;-77
2020/12/24 07:29:29;;;;;;;60.63;37.77;;;;;;;8.34;100.00;101650.56;5035024;28;20503;-76
2020/12/24 07:31:56;;;;;;;50.67;29.43;;;;;;;8.36;100.00;101636.59;5035464;28;20400;-78
2020/12/24 07:34:22;;;;;;;64.90;38.43;;;;;;;8.44;100.00;101644.97;5034833;28;20414;-76
2020/12/24 07:36:48;;;;;;;67.57;34.50;;;;;;;8.48;100.00;101642.16;5035066;28;20455;-77
2020/12/24 07:39:14;;;;;;;64.47;39.80;;;;;;;8.54;100.00;101635.81;5034664;28;20423;-76
2020/12/24 07:41:43;;;;;;;76.07;41.40;;;;;;;8.60;100.00;101646.00;5034785;28;20412;-77
2020/12/24 07:44:13;;;;;;;62.33;38.20;;;;;;;8.59;100.00;101639.06;5034730;28;20682;-77
2020/12/24 07:46:39;;;;;;;58.63;36.27;;;;;;;8.57;100.00;101644.38;5034906;28;20916;-78
2020/12/24 07:49:05;;;;;;;73.90;41.90;;;;;;;8.63;100.00;101645.03;5034806;28;20945;-75
2020/12/24 07:51:32;;;;;;;61.03;32.07;;;;;;;8.68;100.00;101640.41;5034827;28;20408;-77
2020/12/24 07:54:07;;;;;;;67.93;41.70;;;;;;;8.67;100.00;101644.81;5034573;28;20469;-76
2020/12/24 07:56:36;;;;;;;69.20;41.40;;;;;;;8.76;100.00;101648.78;5034664;28;20455;-77
2020/12/24 07:59:06;;;;;;;69.27;38.80;;;;;;;8.92;100.00;101641.09;5034643;28;20913;-77
2020/12/24 08:01:31;;;;;;;74.37;42.47;;;;;;;8.99;100.00;101645.97;5034559;28;20435;-77
2020/12/24 08:04:02;;;;;;;60.60;33.33;;;;;;;9.09;100.00;101642.03;5034779;28;20504;-77
2020/12/24 08:06:35;;;;;;;53.53;31.80;;;;;;;9.10;100.00;101643.72;5034400;28;20648;-77
2020/12/24 08:09:15;;;;;;;69.40;39.60;;;;;;;9.20;100.00;101645.91;5034841;28;20504;-77
2020/12/24 08:11:42;;;;;;;76.20;44.50;;;;;;;9.22;100.00;101642.31;5034595;28;20409;-77
2020/12/24 08:14:08;;;;;;;74.00;38.33;;;;;;;9.20;100.00;101643.28;5034726;28;20411;-76
2020/12/24 08:16:36;;;;;;;84.50;42.10;;;;;;;9.26;100.00;101643.88;5034397;28;20487;-75
2020/12/24 08:19:18;;;;;;;70.23;40.03;;;;;;;9.32;100.00;101645.34;5033986;28;20404;-77
2020/12/24 08:22:06;;;;;;;70.97;40.10;;;;;;;9.61;100.00;101644.84;5034165;28;20405;-77
2020/12/24 08:24:38;;;;;;;85.23;41.40;;;;;;;9.87;100.00;101642.69;5034308;28;20400;-77
2020/12/24 08:27:05;;;;;;;69.40;42.70;;;;;;;9.91;100.00;101652.13;5033057;28;20513;-77
2020/12/24 08:29:30;;;;;;;64.30;37.90;;;;;;;10.03;100.00;101651.50;5034168;28;20452;-77
2020/12/24 08:31:56;;;;;;;75.23;44.30;;;;;;;10.35;100.00;101643.81;5034169;28;20876;-77
2020/12/24 08:34:22;;;;;;;82.90;48.10;;;;;;;10.70;100.00;101647.25;5033923;28;20492;-78
2020/12/24 08:36:48;;;;;;;79.13;47.77;;;;;;;10.83;100.00;101646.53;5033958;28;20452;-77
2020/12/24 08:39:18;;;;;;;100.53;61.90;;;;;;;10.79;100.00;101652.00;5033910;28;20173;-78
2020/12/24 08:41:55;;;;;;;89.50;52.47;;;;;;;10.65;100.00;101652.72;5033519;28;20400;-77
2020/12/24 08:44:22;;;;;;;82.00;50.93;;;;;;;10.70;100.00;101647.25;5033754;28;20473;-76
2020/12/24 08:47:02;;;;;;;84.20;50.70;;;;;;;10.65;100.00;101649.25;5033724;28;20471;-76
2020/12/24 08:49:28;;;;;;;76.20;47.80;;;;;;;10.52;100.00;101655.16;5033986;28;20416;-78
2020/12/24 08:52:11;;;;;;;62.40;34.80;;;;;;;10.63;100.00;101651.97;5034030;28;20428;-75
2020/12/24 08:54:37;;;;;;;61.80;37.17;;;;;;;10.67;100.00;101650.06;5033951;28;20436;-78
2020/12/24 08:57:04;;;;;;;58.63;38.87;;;;;;;10.69;100.00;101649.03;5015996;28;20452;-78
2020/12/24 08:59:30;;;;;;;66.23;39.80;;;;;;;10.81;100.00;101643.13;5033394;28;20408;-78
2020/12/24 09:01:58;;;;;;;60.40;39.57;;;;;;;10.96;100.00;101638.00;5033613;28;20420;-76
2020/12/24 09:04:25;;;;;;;69.80;38.10;;;;;;;10.91;100.00;101630.34;5033228;28;20206;-76
2020/12/24 09:06:50;;;;;;;53.90;34.00;;;;;;;10.81;100.00;101624.72;5033290;28;20798;-77
2020/12/24 09:09:19;;;;;;;56.63;31.97;;;;;;;10.74;100.00;101618.09;5033382;28;20911;-77
2020/12/24 09:11:45;;;;;;;52.63;33.70;;;;;;;10.64;100.00;101616.88;5033423;28;20197;-77
2020/12/24 09:14:22;;;;;;;61.27;35.60;;;;;;;10.66;100.00;101604.53;5033486;28;20853;-76
2020/12/24 09:16:58;;;;;;;45.23;29.90;;;;;;;10.60;100.00;101593.47;5033209;28;20197;-76
2020/12/24 09:19:25;;;;;;;49.10;27.67;;;;;;;10.71;100.00;101591.97;5033326;28;20557;-76
2020/12/24 09:21:52;;;;;;;58.33;34.30;;;;;;;10.69;100.00;101587.72;5033253;28;20439;-78
2020/12/24 09:24:18;;;;;;;54.30;32.17;;;;;;;10.72;100.00;101588.41;5032856;28;20400;-77
2020/12/24 09:26:51;;;;;;;53.60;31.20;;;;;;;11.00;100.00;101579.03;5032834;28;20429;-78
2020/12/24 09:29:18;;;;;;;48.37;33.43;;;;;;;11.31;100.00;101567.66;5032682;28;20173;-76
2020/12/24 09:31:58;;;;;;;49.87;29.17;;;;;;;11.77;100.00;101559.72;5018757;28;20856;-76
2020/12/24 09:34:27;;;;;;;42.97;26.43;;;;;;;12.02;100.00;101562.66;5014803;28;20869;-77
2020/12/24 09:36:53;;;;;;;48.67;29.43;;;;;;;12.12;100.00;101558.53;5032321;28;20444;-78
2020/12/24 09:39:19;;;;;;;47.47;30.80;;;;;;;12.23;100.00;101549.97;5014591;28;20428;-77
2020/12/24 09:41:46;;;;;;;51.77;30.07;;;;;;;12.06;100.00;101539.63;5032302;28;20169;-76
2020/12/24 09:44:12;;;;;;;44.93;28.40;;;;;;;11.91;100.00;101541.38;5032138;28;20507;-77
2020/12/24 09:46:38;;;;;;;49.60;29.43;;;;;;;11.99;100.00;101533.00;5032756;28;20479;-77
2020/12/24 09:49:05;;;;;;;45.50;27.33;;;;;;;12.07;100.00;101530.75;5032616;28;20512;-76
2020/12/24 09:51:35;;;;;;;42.93;27.17;;;;;;;12.11;100.00;101532.28;5031903;28;20405;-76
2020/12/24 09:54:02;;;;;;;49.23;31.77;;;;;;;12.25;100.00;101531.47;5032417;28;20405;-76
2020/12/24 09:56:27;;;;;;;49.87;32.53;;;;;;;12.44;100.00;101518.81;5032308;28;20452;-78
2020/12/24 09:58:53;;;;;;;57.73;33.83;;;;;;;12.62;100.00;101519.44;5032239;28;20385;-78
2020/12/24 10:01:18;;;;;;;49.40;28.20;;;;;;;12.81;100.00;101508.59;5032477;28;20169;-77
2020/12/24 10:03:45;;;;;;;46.30;29.03;;;;;;;12.92;100.00;101512.25;5032273;28;20616;-77
2020/12/24 10:06:10;;;;;;;43.90;29.20;;;;;;;13.03;100.00;101503.66;5032154;28;20166;-77
2020/12/24 10:08:36;;;;;;;41.80;28.30;;;;;;;13.28;100.00;101508.19;5032098;28;20423;-77
2020/12/24 10:11:01;;;;;;;45.47;29.80;;;;;;;13.37;100.00;101502.31;5031960;28;20263;-79
2020/12/24 10:13:27;;;;;;;43.50;27.73;;;;;;;13.48;100.00;101501.59;5031773;28;20177;-78
2020/12/24 10:15:52;;;;;;;47.00;26.97;;;;;;;13.54;100.00;101496.78;5031420;28;20193;-76
2020/12/24 10:18:19;;;;;;;43.00;27.03;;;;;;;13.55;100.00;101502.91;5032235;28;20563;-77
2020/12/24 10:20:44;;;;;;;52.23;31.57;;;;;;;13.60;100.00;101493.72;5031725;28;20867;-77
2020/12/24 10:23:10;;;;;;;44.07;26.70;;;;;;;13.63;100.00;101491.81;5031486;28;20663;-78
2020/12/24 10:25:37;;;;;;;50.43;31.50;;;;;;;13.41;100.00;101493.25;5031394;28;20686;-77
2020/12/24 10:28:03;;;;;;;42.73;30.37;;;;;;;13.60;100.00;101493.72;5031183;28;20178;-77
2020/12/24 10:30:28;;;;;;;53.97;31.50;;;;;;;13.92;100.00;101485.41;5031352;28;20508;-77
2020/12/24 10:32:54;;;;;;;42.03;26.57;;;;;;;14.19;100.00;101485.25;5031838;28;20551;-76
2020/12/24 10:35:19;;;;;;;39.23;26.07;;;;;;;14.69;100.00;101478.22;5031592;28;20220;-77
2020/12/24 10:37:45;;;;;;;45.17;25.33;;;;;;;15.19;100.00;101461.28;5031925;28;20200;-78
2020/12/24 10:40:10;;;;;;;42.67;25.37;;;;;;;15.26;100.00;101459.88;5031803;28;20624;-78
2020/12/24 10:42:38;;;;;;;39.83;27.20;;;;;;;15.50;100.00;101445.75;5031504;28;20177;-78
2020/12/24 10:45:04;;;;;;;36.23;23.17;;;;;;;15.19;100.00;101441.91;5031345;28;20266;-77
2020/12/24 10:47:29;;;;;;;34.10;23.20;;;;;;;15.07;100.00;101448.97;5030890;28;20465;-77
2020/12/24 10:49:55;;;;;;;40.00;21.37;;;;;;;15.30;100.00;101439.28;5030405;28;20443;-77
2020/12/24 10:52:21;;;;;;;33.90;23.03;;;;;;;15.15;100.00;101441.28;5030860;28;20272;-78
2020/12/24 10:54:46;;;;;;;34.00;22.27;;;;;;;14.65;100.00;101445.00;5031115;28;20276;-77
2020/12/24 10:57:12;;;;;;;31.37;21.47;;;;;;;14.08;100.00;101450.81;5030822;28;20561;-77
2020/12/24 10:59:37;;;;;;;33.77;21.97;;;;;;;14.04;100.00;101446.69;5031621;28;20186;-75
2020/12/24 11:02:02;;;;;;;46.37;26.83;;;;;;;14.28;100.00;101444.13;5031030;28;20173;-77
2020/12/24 11:04:29;;;;;;;38.77;25.00;;;;;;;14.83;100.00;101433.09;5031280;28;20189;-77
2020/12/24 11:06:55;;;;;;;39.57;25.37;;;;;;;15.07;100.00;101425.13;5030951;28;20673;-77
2020/12/24 11:09:21;;;;;;;35.23;23.27;;;;;;;15.22;100.00;101421.34;5031203;28;20985;-79